• Join FlightAware (Why Join?)
  • Login
  • US Flag 
10:21AM EST


 

Airport Tracker/Info


-or-


 

Live Flight TrackerFlight Track Log ✈ LNI33 ✈ 23-Mar-2014 ✈ WADD / DPS - WIII / CGK

Flight Track Log - Related Links

Times and Time Zones

All times are in EDT time to prevent confusion due to time zone crossing. See the LNI33 flight status page for this flight to view local times or setup timezone preferences in your user account.

Time Position Orientation Groundspeed Altitude Reporting Facility
EDT Latitude Longitude Course Direction KTS MPH feet Rate Location/Type
07:13AM -7.8188 113.4813 296° West 499 574 33,600  Level FlightAware ADS-B
07:14AM -7.7442 113.3284 296° West 484 557 35,300 1,260 Climbing FlightAware ADS-B (RPLS / SGL)
07:15AM -7.7088 113.2556 296° West 480 552 36,000 540 Climbing FlightAware ADS-B (RPLS / SGL)
07:15AM -7.6820 113.2005 296° West 482 555 36,000  Level FlightAware ADS-B (RPLS / SGL)
07:16AM -7.6505 113.1359 296° West 482 555 36,000  Level FlightAware ADS-B (RPLS / SGL)
07:17AM -7.6068 113.0460 296° West 482 555 36,000  Level FlightAware ADS-B
07:17AM -7.5832 112.9977 296° West 482 555 36,000  Level FlightAware ADS-B (RPLS / SGL)
07:18AM -7.5374 112.9038 296° West 482 555 36,000  Level FlightAware ADS-B
07:18AM -7.5013 112.8301 296° West 482 555 36,000  Level FlightAware ADS-B (KPRC)
07:19AM -7.4603 112.7464 296° West 480 552 36,000  Level FlightAware ADS-B
07:20AM -7.4198 112.6638 296° West 478 550 36,000  Level FlightAware ADS-B (RPLS / SGL)
07:20AM -7.3826 112.5877 296° West 476 548 36,000  Level FlightAware ADS-B (KPRC)
07:21AM -7.3580 112.5371 296° West 475 547 36,000  Level FlightAware ADS-B
07:21AM -7.3318 112.4835 296° West 475 547 36,000  Level FlightAware ADS-B (KPRC)
07:23AM -7.2435 112.3028 296° West 472 543 36,000  Level FlightAware ADS-B
07:25AM -7.2159 112.2465 296° West 472 543 36,000  Level FlightAware ADS-B
07:27AM -7.1503 111.8996 281° West  Level Estimated
07:28AM -7.1147 111.7122 281° West  Level Estimated
07:29AM -7.0791 111.5248 281° West  Level Estimated
07:30AM -7.0433 111.3374 281° West  Level Estimated
07:31AM -7.0075 111.1500 281° West  Level Estimated
07:32AM -6.9716 110.9627 281° West  Level Estimated
07:33AM -6.9357 110.7754 281° West  Level Estimated
07:34AM -6.8997 110.5882 281° West  Level Estimated
07:35AM -6.8636 110.4009 281° West  Level Estimated
07:36AM -6.8274 110.2137 281° West  Level Estimated
07:37AM -6.7911 110.0266 281° West  Level Estimated
07:38AM -6.7548 109.8394 281° West  Level Estimated
07:39AM -6.7184 109.6523 281° West  Level Estimated
07:40AM -6.6820 109.4652 281° West  Level Estimated
07:41AM -6.6454 109.2781 281° West  Level Estimated
07:42AM -6.6088 109.0911 281° West  Level Estimated
07:43AM -6.5722 108.9041 281° West  Level Estimated
07:44AM -6.5354 108.7171 281° West  Level Estimated
07:45AM -6.4986 108.5301 281° West  Level Estimated
07:46AM -6.4617 108.3432 281° West  Level Estimated
07:47AM -6.4248 108.1563 281° West  Level Estimated
07:48AM -6.3878 107.9694 281° West  Level Estimated
07:49AM -6.3507 107.7826 281° West  Level Estimated
07:50AM -6.3135 107.5958 281° West  Level Estimated
07:51AM -6.2763 107.4090 281° West  Level Estimated
07:52AM -6.2390 107.2222 281° West  Level Estimated
07:53AM -6.2017 107.0355 281° West  Level Estimated
07:54AM -6.1643 106.8487 281° West  Level Estimated
07:55AM -6.1268 106.6621 281° West  Level Estimated
07:56AM -6.1256 106.6559 281° West  Level Estimated
07:57AM -6.1256 106.6559 North  Level Estimated
07:58AM -6.1256 106.6559 North  Level Estimated
07:59AM -6.1256 106.6559 North  Level Estimated
08:00AM -6.1256 106.6559 North  Level Estimated
08:01AM -6.1256 106.6559 North  Level Estimated
08:02AM -6.1256 106.6559 North  Level Estimated
08:03AM -6.1256 106.6559 North  Level Estimated
08:04AM -6.1256 106.6559 North  Level Estimated
08:05AM -6.1256 106.6559 North  Level Estimated
08:06AM -6.1256 106.6559 North  Level Estimated
08:07AM -6.1256 106.6559 North  Level Estimated
08:08AM -6.1256 106.6559 North  Level Estimated
08:09AM -6.1256 106.6559 North  Level Estimated
08:10AM -6.1256 106.6559 North  Level Estimated
08:11AM -6.1256 106.6559 North  Level Estimated
08:12AM -6.1256 106.6559 North  Level Estimated
08:13AM -6.1256 106.6559 North  Level Estimated
08:14AM -6.1256 106.6559 North  Level Estimated
08:15AM -6.1256 106.6559 North  Level Estimated
08:16AM -6.1256 106.6559 North  Level Estimated